This is the latest recevied weather packets stored in our database for station/object YO8SDE-8. If no packets are shown the sender has not sent any weather packets the latest 10 day(s).
| Time | Temp. | Humidity | Pressure | Rain* | Wind** | Luminosity | Snow |
|---|---|---|---|---|---|---|---|
| 1777552867 | 13.89° C | 28% | 1014.4 hPa | 0 mm | - | - | - |
| 1777552567 | 14.44° C | 28% | 1014.5 hPa | 0 mm | - | - | - |
| 1777552267 | 15° C | 27% | 1014.4 hPa | 0 mm | - | - | - |
| 1777551967 | 17.22° C | 24% | 1014.4 hPa | 0 mm | - | - | - |
| 1777551667 | 19.44° C | 25% | 1014.4 hPa | 0 mm | - | - | - |
| 1777551367 | 17.22° C | 26% | 1014.6 hPa | 0 mm | - | - | - |
| 1777551067 | 16.11° C | 28% | 1014.6 hPa | 0 mm | - | - | - |
| 1777550767 | 15.56° C | 27% | 1014.7 hPa | 0 mm | - | - | - |
| 1777550467 | 15.56° C | 28% | 1014.6 hPa | 0 mm | - | - | - |
| 1777550167 | 15° C | 28% | 1014.7 hPa | 0 mm | - | - | - |
| 1777549867 | 16.67° C | 25% | 1014.7 hPa | 0 mm | - | - | - |
| 1777549567 | 18.89° C | 26% | 1014.7 hPa | 0 mm | - | - | - |
| 1777549267 | 16.67° C | 28% | 1014.8 hPa | 0 mm | - | - | - |
| 1777548967 | 15° C | 31% | 1014.8 hPa | 0 mm | - | - | - |
| 1777548667 | 13.89° C | 30% | 1014.8 hPa | 0 mm | - | - | - |
| 1777548367 | 15° C | 28% | 1014.8 hPa | 0 mm | - | - | - |
| 1777548067 | 16.67° C | 27% | 1014.8 hPa | 0 mm | - | - | - |
| 1777547767 | 16.11° C | 28% | 1015 hPa | 0 mm | - | - | - |
| 1777547467 | 15.56° C | 29% | 1015.1 hPa | 0 mm | - | - | - |
| 1777547167 | 13.89° C | 31% | 1015.1 hPa | 0 mm | - | - | - |
| 1777546867 | 13.89° C | 31% | 1015.1 hPa | 0 mm | - | - | - |
| 1777546567 | 13.89° C | 30% | 1015 hPa | 0 mm | - | - | - |
| 1777546267 | 14.44° C | 28% | 1015.1 hPa | 0 mm | - | - | - |
| 1777545967 | 15.56° C | 28% | 1015.2 hPa | 0 mm | - | - | - |
| 1777545667 | 15° C | 29% | 1015.2 hPa | 0 mm | - | - | - |
* Rain latest hour (hover to see other rain measurements)
** Current wind speed in m/s (hover to see current wind gust speed)